sensor_id;sensor_type;location;lat;lon;timestamp;P1;durP1;ratioP1;P2;durP2;ratioP2
51738;SDS011;37815;52.692;6.226;2022-10-17T00:04:41;2.75;;;1.58;;
51738;SDS011;37815;52.692;6.226;2022-10-17T00:09:42;2.92;;;1.60;;
51738;SDS011;37815;52.692;6.226;2022-10-17T00:14:43;3.55;;;1.67;;
51738;SDS011;37815;52.692;6.226;2022-10-17T00:19:44;2.47;;;1.60;;
51738;SDS011;37815;52.692;6.226;2022-10-17T00:24:45;3.05;;;1.88;;
51738;SDS011;37815;52.692;6.226;2022-10-17T00:29:49;2.80;;;1.90;;
51738;SDS011;37815;52.692;6.226;2022-10-17T00:34:50;3.22;;;1.63;;
51738;SDS011;37815;52.692;6.226;2022-10-17T00:39:52;2.47;;;1.75;;
51738;SDS011;37815;52.692;6.226;2022-10-17T00:44:59;3.13;;;1.40;;
51738;SDS011;37815;52.692;6.226;2022-10-17T00:50:04;3.08;;;1.50;;
51738;SDS011;37815;52.692;6.226;2022-10-17T00:55:11;2.67;;;1.80;;
51738;SDS011;37815;52.692;6.226;2022-10-17T01:00:19;3.45;;;1.60;;
51738;SDS011;37815;52.692;6.226;2022-10-17T01:05:20;2.03;;;1.52;;
51738;SDS011;37815;52.692;6.226;2022-10-17T01:10:21;2.50;;;1.50;;
51738;SDS011;37815;52.692;6.226;2022-10-17T01:20:44;1.63;;;1.45;;
51738;SDS011;37815;52.692;6.226;2022-10-17T01:47:13;3.70;;;1.92;;
51738;SDS011;37815;52.692;6.226;2022-10-17T01:52:18;1.73;;;1.52;;
51738;SDS011;37815;52.692;6.226;2022-10-17T01:57:39;2.30;;;1.58;;
51738;SDS011;37815;52.692;6.226;2022-10-17T02:02:43;4.20;;;1.85;;
51738;SDS011;37815;52.692;6.226;2022-10-17T02:07:45;2.97;;;1.75;;
51738;SDS011;37815;52.692;6.226;2022-10-17T02:12:53;1.77;;;1.40;;
51738;SDS011;37815;52.692;6.226;2022-10-17T02:23:36;1.95;;;1.58;;
51738;SDS011;37815;52.692;6.226;2022-10-17T02:34:07;2.42;;;1.90;;
51738;SDS011;37815;52.692;6.226;2022-10-17T02:39:13;2.63;;;1.88;;
51738;SDS011;37815;52.692;6.226;2022-10-17T02:44:15;3.08;;;2.00;;
51738;SDS011;37815;52.692;6.226;2022-10-17T02:49:17;7.55;;;2.13;;
51738;SDS011;37815;52.692;6.226;2022-10-17T02:59:43;2.35;;;1.77;;
51738;SDS011;37815;52.692;6.226;2022-10-17T03:04:45;2.50;;;1.88;;
51738;SDS011;37815;52.692;6.226;2022-10-17T03:09:46;3.13;;;2.20;;
51738;SDS011;37815;52.692;6.226;2022-10-17T03:14:47;2.53;;;2.05;;
51738;SDS011;37815;52.692;6.226;2022-10-17T03:19:47;2.88;;;2.10;;
51738;SDS011;37815;52.692;6.226;2022-10-17T03:24:48;3.60;;;2.10;;
51738;SDS011;37815;52.692;6.226;2022-10-17T03:29:49;2.50;;;2.10;;
51738;SDS011;37815;52.692;6.226;2022-10-17T03:34:50;3.80;;;2.35;;
51738;SDS011;37815;52.692;6.226;2022-10-17T03:39:50;5.05;;;2.60;;
51738;SDS011;37815;52.692;6.226;2022-10-17T03:44:51;3.50;;;2.08;;
51738;SDS011;37815;52.692;6.226;2022-10-17T03:49:52;4.07;;;2.72;;
51738;SDS011;37815;52.692;6.226;2022-10-17T03:54:52;3.63;;;2.58;;
51738;SDS011;37815;52.692;6.226;2022-10-17T03:59:53;6.22;;;2.78;;
51738;SDS011;37815;52.692;6.226;2022-10-17T04:04:54;3.53;;;2.90;;
51738;SDS011;37815;52.692;6.226;2022-10-17T04:09:54;4.00;;;2.97;;
51738;SDS011;37815;52.692;6.226;2022-10-17T04:14:55;4.20;;;2.90;;
51738;SDS011;37815;52.692;6.226;2022-10-17T04:19:56;4.95;;;2.60;;
51738;SDS011;37815;52.692;6.226;2022-10-17T04:24:57;3.85;;;3.20;;
51738;SDS011;37815;52.692;6.226;2022-10-17T04:29:57;5.10;;;2.80;;
51738;SDS011;37815;52.692;6.226;2022-10-17T04:34:58;4.43;;;2.95;;
51738;SDS011;37815;52.692;6.226;2022-10-17T04:39:59;7.20;;;3.67;;
51738;SDS011;37815;52.692;6.226;2022-10-17T04:44:59;4.22;;;3.25;;
51738;SDS011;37815;52.692;6.226;2022-10-17T04:50:00;6.18;;;3.75;;
51738;SDS011;37815;52.692;6.226;2022-10-17T04:55:01;4.60;;;3.50;;
51738;SDS011;37815;52.692;6.226;2022-10-17T05:00:03;6.45;;;3.25;;
51738;SDS011;37815;52.692;6.226;2022-10-17T05:05:04;4.18;;;3.38;;
51738;SDS011;37815;52.692;6.226;2022-10-17T05:10:06;5.57;;;3.47;;
51738;SDS011;37815;52.692;6.226;2022-10-17T05:15:07;5.05;;;3.50;;
51738;SDS011;37815;52.692;6.226;2022-10-17T05:20:08;5.53;;;3.38;;
51738;SDS011;37815;52.692;6.226;2022-10-17T05:25:09;4.63;;;3.80;;
51738;SDS011;37815;52.692;6.226;2022-10-17T05:30:10;5.57;;;3.58;;
51738;SDS011;37815;52.692;6.226;2022-10-17T05:35:11;5.47;;;3.65;;
51738;SDS011;37815;52.692;6.226;2022-10-17T05:40:12;5.43;;;3.78;;
51738;SDS011;37815;52.692;6.226;2022-10-17T05:45:13;4.68;;;3.55;;
51738;SDS011;37815;52.692;6.226;2022-10-17T05:50:15;6.32;;;4.03;;
51738;SDS011;37815;52.692;6.226;2022-10-17T05:55:15;6.90;;;4.40;;
51738;SDS011;37815;52.692;6.226;2022-10-17T06:00:16;7.00;;;4.95;;
51738;SDS011;37815;52.692;6.226;2022-10-17T06:05:17;7.68;;;4.32;;
51738;SDS011;37815;52.692;6.226;2022-10-17T06:10:18;7.82;;;4.50;;
51738;SDS011;37815;52.692;6.226;2022-10-17T06:15:19;6.60;;;4.40;;
51738;SDS011;37815;52.692;6.226;2022-10-17T06:20:20;8.43;;;4.63;;
51738;SDS011;37815;52.692;6.226;2022-10-17T06:25:20;7.40;;;4.45;;
51738;SDS011;37815;52.692;6.226;2022-10-17T06:30:21;7.93;;;4.32;;
51738;SDS011;37815;52.692;6.226;2022-10-17T06:35:22;8.18;;;4.38;;
51738;SDS011;37815;52.692;6.226;2022-10-17T06:40:22;8.52;;;4.40;;
51738;SDS011;37815;52.692;6.226;2022-10-17T06:45:23;6.65;;;4.40;;
51738;SDS011;37815;52.692;6.226;2022-10-17T06:50:24;6.95;;;4.70;;
51738;SDS011;37815;52.692;6.226;2022-10-17T06:55:25;7.03;;;4.05;;
51738;SDS011;37815;52.692;6.226;2022-10-17T07:00:26;6.78;;;4.68;;
51738;SDS011;37815;52.692;6.226;2022-10-17T07:05:27;6.53;;;4.28;;
51738;SDS011;37815;52.692;6.226;2022-10-17T07:10:28;7.32;;;4.60;;
51738;SDS011;37815;52.692;6.226;2022-10-17T07:15:28;7.93;;;4.35;;
51738;SDS011;37815;52.692;6.226;2022-10-17T07:20:31;5.82;;;3.92;;
51738;SDS011;37815;52.692;6.226;2022-10-17T07:25:32;6.75;;;3.50;;
51738;SDS011;37815;52.692;6.226;2022-10-17T07:30:33;7.93;;;4.28;;
51738;SDS011;37815;52.692;6.226;2022-10-17T07:35:37;6.65;;;4.20;;
51738;SDS011;37815;52.692;6.226;2022-10-17T07:40:41;7.88;;;4.30;;
51738;SDS011;37815;52.692;6.226;2022-10-17T07:45:41;6.20;;;4.10;;
51738;SDS011;37815;52.692;6.226;2022-10-17T07:50:42;9.80;;;4.85;;
51738;SDS011;37815;52.692;6.226;2022-10-17T07:55:43;7.32;;;4.60;;
51738;SDS011;37815;52.692;6.226;2022-10-17T08:00:45;7.53;;;4.07;;
51738;SDS011;37815;52.692;6.226;2022-10-17T08:05:50;5.90;;;3.92;;
51738;SDS011;37815;52.692;6.226;2022-10-17T08:10:50;6.78;;;4.60;;
51738;SDS011;37815;52.692;6.226;2022-10-17T08:15:51;13.95;;;4.72;;
51738;SDS011;37815;52.692;6.226;2022-10-17T08:20:52;6.30;;;4.25;;
51738;SDS011;37815;52.692;6.226;2022-10-17T08:25:53;6.43;;;4.40;;
51738;SDS011;37815;52.692;6.226;2022-10-17T08:31:01;7.82;;;4.57;;
51738;SDS011;37815;52.692;6.226;2022-10-17T08:36:06;5.55;;;4.28;;
51738;SDS011;37815;52.692;6.226;2022-10-17T08:41:13;5.47;;;3.97;;
51738;SDS011;37815;52.692;6.226;2022-10-17T08:46:29;7.53;;;4.07;;
51738;SDS011;37815;52.692;6.226;2022-10-17T08:51:34;6.53;;;3.97;;
51738;SDS011;37815;52.692;6.226;2022-10-17T08:56:41;7.22;;;4.30;;
51738;SDS011;37815;52.692;6.226;2022-10-17T09:02:21;5.03;;;3.85;;
51738;SDS011;37815;52.692;6.226;2022-10-17T09:13:09;6.88;;;3.90;;
51738;SDS011;37815;52.692;6.226;2022-10-17T09:18:23;6.65;;;4.38;;
51738;SDS011;37815;52.692;6.226;2022-10-17T09:23:41;6.40;;;4.30;;
51738;SDS011;37815;52.692;6.226;2022-10-17T09:28:58;5.68;;;4.00;;
51738;SDS011;37815;52.692;6.226;2022-10-17T09:34:00;5.30;;;3.85;;
51738;SDS011;37815;52.692;6.226;2022-10-17T09:39:03;10.38;;;3.85;;
51738;SDS011;37815;52.692;6.226;2022-10-17T09:44:14;7.53;;;4.35;;
51738;SDS011;37815;52.692;6.226;2022-10-17T09:49:19;9.15;;;4.38;;
51738;SDS011;37815;52.692;6.226;2022-10-17T09:54:31;7.20;;;4.15;;
51738;SDS011;37815;52.692;6.226;2022-10-17T10:00:18;6.65;;;4.13;;
51738;SDS011;37815;52.692;6.226;2022-10-17T10:05:16;6.03;;;3.93;;
51738;SDS011;37815;52.692;6.226;2022-10-17T10:10:23;10.20;;;4.63;;
51738;SDS011;37815;52.692;6.226;2022-10-17T10:15:30;7.32;;;4.22;;
51738;SDS011;37815;52.692;6.226;2022-10-17T10:20:36;6.63;;;4.22;;
51738;SDS011;37815;52.692;6.226;2022-10-17T10:25:37;9.63;;;4.43;;
51738;SDS011;37815;52.692;6.226;2022-10-17T10:30:48;7.38;;;4.22;;
51738;SDS011;37815;52.692;6.226;2022-10-17T10:35:53;5.38;;;3.58;;
51738;SDS011;37815;52.692;6.226;2022-10-17T10:46:18;9.47;;;4.17;;
51738;SDS011;37815;52.692;6.226;2022-10-17T10:51:32;7.60;;;4.03;;
51738;SDS011;37815;52.692;6.226;2022-10-17T10:56:41;10.20;;;4.32;;
51738;SDS011;37815;52.692;6.226;2022-10-17T11:17:39;9.32;;;4.05;;
51738;SDS011;37815;52.692;6.226;2022-10-17T11:23:18;8.07;;;4.30;;
51738;SDS011;37815;52.692;6.226;2022-10-17T11:28:37;6.93;;;4.30;;
51738;SDS011;37815;52.692;6.226;2022-10-17T11:33:43;8.50;;;4.43;;
51738;SDS011;37815;52.692;6.226;2022-10-17T11:39:06;7.18;;;4.00;;
51738;SDS011;37815;52.692;6.226;2022-10-17T11:44:36;13.18;;;4.78;;
51738;SDS011;37815;52.692;6.226;2022-10-17T11:49:43;11.60;;;5.35;;
51738;SDS011;37815;52.692;6.226;2022-10-17T11:55:00;6.05;;;3.88;;
51738;SDS011;37815;52.692;6.226;2022-10-17T12:00:17;7.93;;;4.07;;
51738;SDS011;37815;52.692;6.226;2022-10-17T12:10:50;10.32;;;4.68;;
51738;SDS011;37815;52.692;6.226;2022-10-17T12:21:18;12.23;;;4.35;;
51738;SDS011;37815;52.692;6.226;2022-10-17T12:26:26;8.35;;;4.88;;
51738;SDS011;37815;52.692;6.226;2022-10-17T12:31:28;11.85;;;4.72;;
51738;SDS011;37815;52.692;6.226;2022-10-17T12:42:20;11.13;;;4.65;;
51738;SDS011;37815;52.692;6.226;2022-10-17T12:58:01;13.90;;;4.63;;
51738;SDS011;37815;52.692;6.226;2022-10-17T13:03:27;9.15;;;4.63;;
51738;SDS011;37815;52.692;6.226;2022-10-17T13:08:37;9.82;;;4.43;;
51738;SDS011;37815;52.692;6.226;2022-10-17T13:13:46;7.60;;;4.00;;
51738;SDS011;37815;52.692;6.226;2022-10-17T13:18:51;8.75;;;4.32;;
51738;SDS011;37815;52.692;6.226;2022-10-17T13:23:52;9.77;;;5.35;;
51738;SDS011;37815;52.692;6.226;2022-10-17T13:29:04;8.52;;;4.03;;
51738;SDS011;37815;52.692;6.226;2022-10-17T13:34:16;7.22;;;4.25;;
51738;SDS011;37815;52.692;6.226;2022-10-17T13:39:19;10.07;;;4.45;;
51738;SDS011;37815;52.692;6.226;2022-10-17T13:44:24;7.45;;;4.20;;
51738;SDS011;37815;52.692;6.226;2022-10-17T13:49:35;11.85;;;4.35;;
51738;SDS011;37815;52.692;6.226;2022-10-17T13:54:40;7.68;;;3.88;;
51738;SDS011;37815;52.692;6.226;2022-10-17T13:59:42;6.68;;;3.72;;
51738;SDS011;37815;52.692;6.226;2022-10-17T14:04:46;9.55;;;3.72;;
51738;SDS011;37815;52.692;6.226;2022-10-17T14:09:58;4.32;;;3.42;;
51738;SDS011;37815;52.692;6.226;2022-10-17T14:15:01;8.57;;;2.70;;
51738;SDS011;37815;52.692;6.226;2022-10-17T14:20:03;5.28;;;2.53;;
51738;SDS011;37815;52.692;6.226;2022-10-17T14:25:04;2.65;;;1.70;;
51738;SDS011;37815;52.692;6.226;2022-10-17T14:35:26;5.45;;;2.47;;
51738;SDS011;37815;52.692;6.226;2022-10-17T14:40:27;6.03;;;2.35;;
51738;SDS011;37815;52.692;6.226;2022-10-17T14:45:30;6.53;;;3.00;;
51738;SDS011;37815;52.692;6.226;2022-10-17T14:50:33;4.20;;;2.40;;
51738;SDS011;37815;52.692;6.226;2022-10-17T14:55:35;5.55;;;2.20;;
51738;SDS011;37815;52.692;6.226;2022-10-17T15:00:37;3.95;;;2.35;;
51738;SDS011;37815;52.692;6.226;2022-10-17T15:05:38;4.20;;;2.35;;
51738;SDS011;37815;52.692;6.226;2022-10-17T15:10:39;4.28;;;2.47;;
51738;SDS011;37815;52.692;6.226;2022-10-17T15:15:43;4.10;;;2.40;;
51738;SDS011;37815;52.692;6.226;2022-10-17T15:20:43;3.13;;;1.98;;
51738;SDS011;37815;52.692;6.226;2022-10-17T15:25:44;5.43;;;2.60;;
51738;SDS011;37815;52.692;6.226;2022-10-17T15:30:45;3.00;;;2.08;;
51738;SDS011;37815;52.692;6.226;2022-10-17T15:35:46;4.47;;;2.25;;
51738;SDS011;37815;52.692;6.226;2022-10-17T15:40:47;4.80;;;2.28;;
51738;SDS011;37815;52.692;6.226;2022-10-17T15:45:49;4.03;;;2.15;;
51738;SDS011;37815;52.692;6.226;2022-10-17T15:50:51;3.22;;;2.03;;
51738;SDS011;37815;52.692;6.226;2022-10-17T15:55:51;5.13;;;2.13;;
51738;SDS011;37815;52.692;6.226;2022-10-17T16:00:52;4.32;;;2.20;;
51738;SDS011;37815;52.692;6.226;2022-10-17T16:05:53;5.35;;;2.50;;
51738;SDS011;37815;52.692;6.226;2022-10-17T16:10:54;3.38;;;2.40;;
51738;SDS011;37815;52.692;6.226;2022-10-17T16:15:56;3.33;;;2.30;;
51738;SDS011;37815;52.692;6.226;2022-10-17T16:20:56;3.30;;;2.30;;
51738;SDS011;37815;52.692;6.226;2022-10-17T16:25:57;4.00;;;2.33;;
51738;SDS011;37815;52.692;6.226;2022-10-17T16:30:58;4.75;;;2.20;;
51738;SDS011;37815;52.692;6.226;2022-10-17T16:35:59;3.83;;;2.42;;
51738;SDS011;37815;52.692;6.226;2022-10-17T16:41:00;4.22;;;2.53;;
51738;SDS011;37815;52.692;6.226;2022-10-17T16:46:03;6.00;;;2.65;;
51738;SDS011;37815;52.692;6.226;2022-10-17T16:51:04;6.20;;;3.15;;
51738;SDS011;37815;52.692;6.226;2022-10-17T16:56:05;5.45;;;2.33;;
51738;SDS011;37815;52.692;6.226;2022-10-17T17:01:09;4.13;;;2.53;;
51738;SDS011;37815;52.692;6.226;2022-10-17T17:06:13;5.95;;;2.75;;
51738;SDS011;37815;52.692;6.226;2022-10-17T17:11:16;5.72;;;2.90;;
51738;SDS011;37815;52.692;6.226;2022-10-17T17:16:19;6.10;;;2.95;;
51738;SDS011;37815;52.692;6.226;2022-10-17T17:21:22;5.60;;;2.60;;
51738;SDS011;37815;52.692;6.226;2022-10-17T17:26:23;6.05;;;3.80;;
51738;SDS011;37815;52.692;6.226;2022-10-17T17:31:26;7.82;;;3.50;;
51738;SDS011;37815;52.692;6.226;2022-10-17T17:36:29;4.60;;;2.85;;
51738;SDS011;37815;52.692;6.226;2022-10-17T17:41:32;6.18;;;3.00;;
51738;SDS011;37815;52.692;6.226;2022-10-17T17:46:33;11.27;;;4.72;;
51738;SDS011;37815;52.692;6.226;2022-10-17T17:51:34;8.70;;;3.17;;
51738;SDS011;37815;52.692;6.226;2022-10-17T17:56:36;4.93;;;3.13;;
51738;SDS011;37815;52.692;6.226;2022-10-17T18:01:37;7.38;;;3.30;;
51738;SDS011;37815;52.692;6.226;2022-10-17T18:06:38;4.28;;;3.20;;
51738;SDS011;37815;52.692;6.226;2022-10-17T18:11:39;4.63;;;3.45;;
51738;SDS011;37815;52.692;6.226;2022-10-17T18:16:41;7.22;;;3.03;;
51738;SDS011;37815;52.692;6.226;2022-10-17T18:21:41;7.30;;;3.17;;
51738;SDS011;37815;52.692;6.226;2022-10-17T18:26:43;7.65;;;3.58;;
51738;SDS011;37815;52.692;6.226;2022-10-17T18:31:44;5.43;;;3.35;;
51738;SDS011;37815;52.692;6.226;2022-10-17T18:36:44;5.10;;;3.25;;
51738;SDS011;37815;52.692;6.226;2022-10-17T18:41:45;4.28;;;3.05;;
51738;SDS011;37815;52.692;6.226;2022-10-17T18:46:46;5.72;;;3.28;;
51738;SDS011;37815;52.692;6.226;2022-10-17T18:51:47;5.40;;;3.17;;
51738;SDS011;37815;52.692;6.226;2022-10-17T18:56:49;7.28;;;3.83;;
51738;SDS011;37815;52.692;6.226;2022-10-17T19:01:51;6.25;;;3.47;;
51738;SDS011;37815;52.692;6.226;2022-10-17T19:06:51;6.85;;;3.95;;
51738;SDS011;37815;52.692;6.226;2022-10-17T19:11:52;4.93;;;3.28;;
51738;SDS011;37815;52.692;6.226;2022-10-17T19:16:53;5.28;;;3.33;;
51738;SDS011;37815;52.692;6.226;2022-10-17T19:21:53;7.78;;;3.40;;
51738;SDS011;37815;52.692;6.226;2022-10-17T19:26:56;6.50;;;3.33;;
51738;SDS011;37815;52.692;6.226;2022-10-17T19:31:58;8.57;;;3.42;;
51738;SDS011;37815;52.692;6.226;2022-10-17T19:36:59;6.22;;;3.40;;
51738;SDS011;37815;52.692;6.226;2022-10-17T19:42:00;6.40;;;3.42;;
51738;SDS011;37815;52.692;6.226;2022-10-17T19:47:01;6.50;;;3.88;;
51738;SDS011;37815;52.692;6.226;2022-10-17T19:52:02;4.70;;;3.35;;
51738;SDS011;37815;52.692;6.226;2022-10-17T19:57:02;5.55;;;3.58;;
51738;SDS011;37815;52.692;6.226;2022-10-17T20:02:05;6.75;;;3.88;;
51738;SDS011;37815;52.692;6.226;2022-10-17T20:07:06;7.00;;;4.05;;
51738;SDS011;37815;52.692;6.226;2022-10-17T20:12:07;7.18;;;3.70;;
51738;SDS011;37815;52.692;6.226;2022-10-17T20:17:07;6.05;;;3.78;;
51738;SDS011;37815;52.692;6.226;2022-10-17T20:22:08;6.63;;;3.60;;
51738;SDS011;37815;52.692;6.226;2022-10-17T20:27:09;4.55;;;3.35;;
51738;SDS011;37815;52.692;6.226;2022-10-17T20:32:09;5.10;;;3.40;;
51738;SDS011;37815;52.692;6.226;2022-10-17T20:37:10;6.97;;;3.20;;
51738;SDS011;37815;52.692;6.226;2022-10-17T20:42:10;7.47;;;3.58;;
51738;SDS011;37815;52.692;6.226;2022-10-17T20:47:11;6.25;;;3.33;;
51738;SDS011;37815;52.692;6.226;2022-10-17T20:52:12;5.55;;;3.53;;
51738;SDS011;37815;52.692;6.226;2022-10-17T20:57:13;6.38;;;4.50;;
51738;SDS011;37815;52.692;6.226;2022-10-17T21:02:13;4.63;;;3.15;;
51738;SDS011;37815;52.692;6.226;2022-10-17T21:07:14;5.75;;;3.63;;
51738;SDS011;37815;52.692;6.226;2022-10-17T21:12:15;5.03;;;3.28;;
51738;SDS011;37815;52.692;6.226;2022-10-17T21:17:16;5.70;;;3.30;;
51738;SDS011;37815;52.692;6.226;2022-10-17T21:22:16;7.18;;;3.78;;
51738;SDS011;37815;52.692;6.226;2022-10-17T21:27:17;6.20;;;3.42;;
51738;SDS011;37815;52.692;6.226;2022-10-17T21:32:18;4.13;;;3.30;;
51738;SDS011;37815;52.692;6.226;2022-10-17T21:37:19;6.50;;;3.38;;
51738;SDS011;37815;52.692;6.226;2022-10-17T21:42:20;5.80;;;3.28;;
51738;SDS011;37815;52.692;6.226;2022-10-17T21:47:20;5.43;;;3.45;;
51738;SDS011;37815;52.692;6.226;2022-10-17T21:52:21;6.50;;;3.58;;
51738;SDS011;37815;52.692;6.226;2022-10-17T21:57:22;6.55;;;3.20;;
51738;SDS011;37815;52.692;6.226;2022-10-17T22:02:22;5.38;;;3.70;;
51738;SDS011;37815;52.692;6.226;2022-10-17T22:07:23;4.47;;;3.25;;
51738;SDS011;37815;52.692;6.226;2022-10-17T22:12:24;5.00;;;3.35;;
51738;SDS011;37815;52.692;6.226;2022-10-17T22:17:25;6.30;;;3.63;;
51738;SDS011;37815;52.692;6.226;2022-10-17T22:22:25;5.75;;;3.60;;
51738;SDS011;37815;52.692;6.226;2022-10-17T22:27:26;6.68;;;3.65;;
51738;SDS011;37815;52.692;6.226;2022-10-17T22:32:27;5.50;;;3.47;;
51738;SDS011;37815;52.692;6.226;2022-10-17T22:37:27;4.80;;;3.72;;
51738;SDS011;37815;52.692;6.226;2022-10-17T22:42:28;5.57;;;3.65;;
51738;SDS011;37815;52.692;6.226;2022-10-17T22:47:30;5.68;;;3.75;;
51738;SDS011;37815;52.692;6.226;2022-10-17T22:52:31;5.63;;;4.05;;
51738;SDS011;37815;52.692;6.226;2022-10-17T22:57:31;6.43;;;3.75;;
51738;SDS011;37815;52.692;6.226;2022-10-17T23:02:32;4.70;;;3.67;;
51738;SDS011;37815;52.692;6.226;2022-10-17T23:07:33;5.22;;;3.53;;
51738;SDS011;37815;52.692;6.226;2022-10-17T23:12:34;5.13;;;3.58;;
51738;SDS011;37815;52.692;6.226;2022-10-17T23:17:35;5.55;;;3.45;;
51738;SDS011;37815;52.692;6.226;2022-10-17T23:22:35;5.43;;;3.35;;
51738;SDS011;37815;52.692;6.226;2022-10-17T23:27:36;6.47;;;4.07;;
51738;SDS011;37815;52.692;6.226;2022-10-17T23:32:37;4.90;;;3.60;;
51738;SDS011;37815;52.692;6.226;2022-10-17T23:37:38;7.63;;;4.00;;
51738;SDS011;37815;52.692;6.226;2022-10-17T23:42:39;4.38;;;3.47;;
51738;SDS011;37815;52.692;6.226;2022-10-17T23:47:40;6.85;;;3.92;;
51738;SDS011;37815;52.692;6.226;2022-10-17T23:52:40;5.55;;;3.83;;
51738;SDS011;37815;52.692;6.226;2022-10-17T23:57:41;4.47;;;3.35;;
